createdAt,value
2022-11-08T09:03:53.339Z,69.13
2022-11-08T09:06:43.878Z,69.30
2022-11-08T09:09:31.516Z,69.70
2022-11-08T09:12:19.100Z,69.52
2022-11-08T09:15:07.258Z,69.26
2022-11-08T09:17:57.405Z,69.26
2022-11-08T09:20:45.231Z,69.16
2022-11-08T09:23:32.819Z,68.96
2022-11-08T09:26:20.503Z,68.99
2022-11-08T09:29:08.161Z,69.12
2022-11-08T09:31:56.291Z,68.96
2022-11-08T09:34:45.306Z,69.06
2022-11-08T09:37:32.962Z,69.30
2022-11-08T09:40:48.896Z,69.47
2022-11-08T09:44:07.703Z,69.25
2022-11-08T09:47:04.741Z,68.98
2022-11-08T09:50:05.923Z,69.03
2022-11-08T09:53:18.080Z,68.93
2022-11-08T09:56:26.963Z,69.02
2022-11-08T09:59:29.738Z,69.17
2022-11-08T10:02:23.641Z,69.29
2022-11-08T10:05:18.508Z,69.14
2022-11-08T10:08:11.909Z,69.20
2022-11-08T10:11:33.774Z,69.09
2022-11-08T10:14:54.389Z,68.95
2022-11-08T10:18:04.003Z,69.17
2022-11-08T10:21:00.484Z,69.43
2022-11-08T10:24:04.043Z,69.32
2022-11-08T10:26:54.744Z,68.88
2022-11-08T10:29:45.532Z,69.27
2022-11-08T10:32:34.894Z,69.27
2022-11-08T10:35:33.158Z,69.18
2022-11-08T10:38:24.846Z,69.23
2022-11-08T10:41:47.283Z,69.23
2022-11-08T10:44:35.897Z,69.36
2022-11-08T10:47:31.080Z,69.33
2022-11-08T10:50:22.837Z,69.29
2022-11-08T10:53:32.012Z,69.20
2022-11-08T10:56:20.722Z,69.18
2022-11-08T10:59:31.467Z,69.32
2022-11-08T11:02:21.929Z,69.09
2022-11-08T11:05:23.748Z,69.36
2022-11-08T11:08:11.291Z,69.35
2022-11-08T11:11:36.424Z,69.41
2022-11-08T11:14:24.298Z,69.29
2022-11-08T11:17:17.460Z,69.38
2022-11-08T11:20:05.660Z,69.53
2022-11-08T11:22:53.584Z,69.38
2022-11-08T11:25:50.909Z,69.26
2022-11-08T11:28:59.279Z,69.46
2022-11-08T11:31:49.623Z,69.41
2022-11-08T11:34:46.381Z,69.44
2022-11-08T11:37:45.153Z,69.37
2022-11-08T11:40:42.062Z,69.40
2022-11-08T11:43:43.115Z,69.52
2022-11-08T11:46:44.426Z,69.57
2022-11-08T11:49:34.557Z,69.62
2022-11-08T11:52:22.182Z,69.79
2022-11-08T11:55:15.231Z,69.47
2022-11-08T11:58:37.534Z,69.48
2022-11-08T12:01:52.556Z,69.62
2022-11-08T12:04:55.339Z,69.80
2022-11-08T12:07:59.980Z,69.73
2022-11-08T12:10:54.978Z,69.86
2022-11-08T12:14:30.813Z,69.89
2022-11-08T12:17:33.754Z,69.86
2022-11-08T12:20:47.800Z,69.84
2022-11-08T12:23:53.478Z,69.75
2022-11-08T12:26:41.099Z,69.51
2022-11-08T12:29:43.982Z,69.50
2022-11-08T12:33:03.578Z,69.57
2022-11-08T12:36:29.348Z,69.67
2022-11-08T12:39:45.240Z,69.55
2022-11-08T12:42:58.177Z,69.72
2022-11-08T12:46:04.519Z,69.90
2022-11-08T12:48:57.802Z,69.78
2022-11-08T12:51:45.313Z,69.89
2022-11-08T12:54:37.619Z,69.79
2022-11-08T12:57:28.422Z,69.77
2022-11-08T13:00:19.676Z,69.72
2022-11-08T13:03:27.527Z,69.94
2022-11-08T13:06:37.178Z,69.89
2022-11-08T13:09:37.048Z,69.94
2022-11-08T13:12:55.315Z,69.91
2022-11-08T13:16:09.285Z,69.82
2022-11-08T13:18:58.998Z,69.86
2022-11-08T13:21:46.670Z,69.83
2022-11-08T13:24:50.601Z,69.97
2022-11-08T13:27:39.716Z,70.03
2022-11-08T13:30:34.288Z,70.02
2022-11-08T13:33:30.576Z,69.82
2022-11-08T13:36:27.557Z,70.11
2022-11-08T13:39:24.195Z,69.96
2022-11-08T13:42:17.676Z,70.27
2022-11-08T13:45:17.508Z,70.11
2022-11-08T13:48:28.677Z,70.03
2022-11-08T13:51:34.415Z,70.11
2022-11-08T13:54:22.435Z,70.16
2022-11-08T13:57:19.614Z,70.10
2022-11-08T14:00:09.872Z,70.25
2022-11-08T14:03:00.674Z,70.15
2022-11-08T14:05:49.653Z,70.23
2022-11-08T14:08:57.309Z,70.41
2022-11-08T14:12:03.996Z,70.28
2022-11-08T14:15:07.306Z,70.29
2022-11-08T14:18:19.875Z,70.13
2022-11-08T14:21:08.123Z,70.24
2022-11-08T14:23:56.259Z,70.40
2022-11-08T14:26:48.112Z,70.41
2022-11-08T14:29:35.799Z,70.27
2022-11-08T14:32:23.713Z,70.51
2022-11-08T14:35:25.754Z,70.53
2022-11-08T14:38:19.648Z,70.64
2022-11-08T14:41:07.613Z,70.68
2022-11-08T14:43:58.538Z,70.68
2022-11-08T14:46:46.390Z,70.57
2022-11-08T14:49:36.593Z,70.73
2022-11-08T14:52:29.441Z,70.51
2022-11-08T14:55:23.865Z,70.61
2022-11-08T14:58:15.787Z,70.74
2022-11-08T15:01:04.731Z,70.70
2022-11-08T15:03:56.094Z,70.59
2022-11-08T15:06:46.902Z,70.69
2022-11-08T15:09:35.979Z,70.56
2022-11-08T15:12:25.962Z,70.73
2022-11-08T15:15:25.191Z,70.71
2022-11-08T15:18:13.353Z,70.81
2022-11-08T15:21:02.773Z,70.97
2022-11-08T15:23:55.255Z,70.92
2022-11-08T15:27:14.593Z,70.83
2022-11-08T15:30:09.591Z,70.88
2022-11-08T15:32:57.383Z,70.87
2022-11-08T15:35:47.051Z,70.93
2022-11-08T15:38:39.982Z,71.11
2022-11-08T15:41:32.899Z,71.05
2022-11-08T15:44:24.003Z,71.10
2022-11-08T15:47:35.738Z,70.71
2022-11-08T15:50:25.821Z,70.94
2022-11-08T15:53:13.569Z,70.87
2022-11-08T15:56:04.723Z,70.92
2022-11-08T15:58:52.405Z,70.98
2022-11-08T16:01:46.314Z,71.00
2022-11-08T16:04:33.948Z,71.00
2022-11-08T16:07:21.519Z,71.14
2022-11-08T16:10:10.222Z,71.14
2022-11-08T16:13:01.002Z,71.13
2022-11-08T16:15:48.881Z,71.29
2022-11-08T16:18:38.796Z,71.36
2022-11-08T16:21:26.640Z,71.28
2022-11-08T16:24:14.759Z,71.33
2022-11-08T16:27:02.529Z,71.08
2022-11-08T16:29:50.130Z,71.18
2022-11-08T16:32:37.720Z,71.29
2022-11-08T16:35:25.995Z,71.38
2022-11-08T16:38:13.780Z,71.39
2022-11-08T16:41:02.416Z,71.45
2022-11-08T16:43:50.229Z,71.22
2022-11-08T16:46:38.457Z,71.41
2022-11-08T16:49:27.433Z,71.06
2022-11-08T16:52:15.060Z,71.28
2022-11-08T16:55:04.082Z,71.24
2022-11-08T16:57:51.653Z,71.03
2022-11-08T17:00:41.743Z,71.22
2022-11-08T17:03:29.803Z,71.30
2022-11-08T17:06:18.514Z,71.06
2022-11-08T17:09:07.279Z,71.11
2022-11-08T17:11:54.862Z,70.81
2022-11-08T17:14:42.644Z,71.06
2022-11-08T17:17:30.358Z,71.23
2022-11-08T17:20:22.365Z,71.25
2022-11-08T17:23:14.927Z,71.38
2022-11-08T17:26:06.782Z,71.49
2022-11-08T17:28:57.655Z,71.26
2022-11-08T17:31:45.366Z,71.44
2022-11-08T17:34:33.412Z,71.54
2022-11-08T17:37:21.158Z,71.52
2022-11-08T17:40:09.177Z,71.35
2022-11-08T17:42:57.225Z,71.46
2022-11-08T17:45:44.845Z,71.48
2022-11-08T17:48:33.614Z,71.56
2022-11-08T17:51:27.031Z,71.36
2022-11-08T17:54:17.904Z,71.49
2022-11-08T17:57:05.511Z,71.43
2022-11-08T17:59:53.243Z,71.69
2022-11-08T18:02:41.062Z,71.34
2022-11-08T18:05:32.022Z,71.60
2022-11-08T18:08:25.568Z,71.73
2022-11-08T18:11:14.555Z,71.46
2022-11-08T18:14:02.943Z,71.42
2022-11-08T18:16:50.740Z,71.39
2022-11-08T18:19:38.566Z,71.36
2022-11-08T18:22:26.921Z,71.56
2022-11-08T18:25:15.980Z,71.32
2022-11-08T18:28:04.576Z,71.18
2022-11-08T18:30:54.875Z,71.55
2022-11-08T18:33:43.663Z,71.40
2022-11-08T18:36:31.681Z,71.75
2022-11-08T18:39:22.493Z,71.88
2022-11-08T18:42:10.256Z,71.79
2022-11-08T18:44:57.885Z,71.71
2022-11-08T18:47:45.537Z,71.62
2022-11-08T18:50:33.365Z,71.81
2022-11-08T18:53:21.610Z,71.79
2022-11-08T18:56:11.198Z,71.83
2022-11-08T18:58:58.863Z,71.98
2022-11-08T19:01:46.519Z,71.89
2022-11-08T19:04:34.199Z,72.10
2022-11-08T19:07:22.184Z,71.92
2022-11-08T19:10:09.964Z,72.10
2022-11-08T19:12:57.584Z,71.95
2022-11-08T19:15:45.601Z,72.08
2022-11-08T19:18:34.224Z,71.85
2022-11-08T19:21:26.642Z,71.76
2022-11-08T19:24:14.236Z,71.77
2022-11-08T19:27:01.992Z,71.95
2022-11-08T19:29:50.224Z,71.73
2022-11-08T19:32:37.845Z,71.81
2022-11-08T19:35:25.416Z,71.87
2022-11-08T19:38:13.088Z,71.92
2022-11-08T19:41:02.179Z,71.99
2022-11-08T19:43:51.922Z,71.94
2022-11-08T19:46:40.594Z,72.12
2022-11-08T19:49:29.276Z,72.09
2022-11-08T19:52:16.895Z,72.14
2022-11-08T19:55:04.865Z,72.27
2022-11-08T19:57:52.484Z,72.29
2022-11-08T20:00:40.213Z,72.14
2022-11-08T20:03:27.806Z,72.32
2022-11-08T20:06:18.090Z,72.07
2022-11-08T20:09:06.609Z,72.07
2022-11-08T20:11:55.093Z,72.16
2022-11-08T20:14:42.694Z,72.35
2022-11-08T20:17:33.236Z,72.29
2022-11-08T20:20:20.859Z,72.16
2022-11-08T20:23:09.162Z,72.22
2022-11-08T20:26:01.096Z,72.08
2022-11-08T20:28:56.312Z,72.20
2022-11-08T20:31:44.294Z,71.86
2022-11-08T20:34:32.378Z,71.85
2022-11-08T20:37:20.115Z,71.94
2022-11-08T20:40:08.587Z,71.90
2022-11-08T20:42:56.232Z,71.97
2022-11-08T20:45:43.825Z,72.10
2022-11-08T20:48:32.202Z,72.12
2022-11-08T20:51:20.890Z,72.02
2022-11-08T20:54:10.278Z,71.95
2022-11-08T20:56:58.141Z,72.01
2022-11-08T20:59:46.117Z,72.14
2022-11-08T21:02:33.747Z,72.06
2022-11-08T21:05:21.880Z,72.22
2022-11-08T21:08:57.974Z,72.40
2022-11-08T21:11:17.839Z,72.16
2022-11-08T21:14:05.493Z,72.25
2022-11-08T21:17:20.134Z,72.05
2022-11-08T21:20:01.189Z,72.00
2022-11-08T21:22:49.047Z,71.96
2022-11-08T21:25:36.699Z,71.96
2022-11-08T21:28:24.881Z,72.23
2022-11-08T21:31:13.062Z,71.90
2022-11-08T21:34:00.840Z,71.97
2022-11-08T21:36:48.536Z,71.91
2022-11-08T21:39:36.152Z,71.98
2022-11-08T21:42:23.772Z,71.87
2022-11-08T21:45:11.639Z,71.99
2022-11-08T21:47:59.241Z,71.79
2022-11-08T21:50:46.865Z,71.75
2022-11-08T21:53:34.477Z,71.85
2022-11-08T21:56:23.855Z,71.80
2022-11-08T21:59:11.532Z,71.88
2022-11-08T22:01:59.248Z,72.08
2022-11-08T22:04:46.905Z,72.13
2022-11-08T22:07:35.294Z,71.89
2022-11-08T22:10:22.900Z,71.91
2022-11-08T22:13:10.528Z,71.98
2022-11-08T22:15:58.198Z,71.75
2022-11-08T22:21:53.420Z,71.79
2022-11-08T22:24:41.196Z,71.89
2022-11-08T22:27:28.871Z,72.02
2022-11-08T22:30:17.011Z,72.11
2022-11-08T22:33:04.712Z,72.12
2022-11-08T22:35:52.393Z,72.21
2022-11-08T22:38:40.183Z,72.12
2022-11-08T22:41:28.626Z,72.21
2022-11-08T22:44:17.084Z,72.11
2022-11-08T22:47:04.667Z,72.21
2022-11-08T22:49:52.315Z,72.15
2022-11-08T22:52:39.954Z,71.97
2022-11-08T22:55:28.013Z,71.90
2022-11-08T22:58:15.668Z,72.08
2022-11-08T23:01:03.773Z,72.13
2022-11-08T23:03:51.436Z,72.09
2022-11-08T23:06:39.942Z,72.24
2022-11-08T23:09:27.537Z,72.24
2022-11-08T23:12:34.020Z,72.29
2022-11-08T23:15:40.069Z,72.20
2022-11-08T23:18:28.265Z,72.12
2022-11-08T23:21:34.467Z,72.20
2022-11-08T23:24:22.217Z,72.28
2022-11-08T23:27:30.665Z,72.05
2022-11-08T23:30:37.385Z,72.26
2022-11-08T23:33:25.117Z,72.08
2022-11-08T23:36:14.268Z,72.02
2022-11-08T23:39:01.896Z,71.93
2022-11-08T23:42:08.163Z,71.99
2022-11-08T23:44:55.798Z,72.10
2022-11-08T23:47:43.515Z,72.42
2022-11-08T23:50:31.377Z,72.18
2022-11-08T23:53:21.146Z,72.23
2022-11-08T23:56:09.076Z,72.18
2022-11-08T23:58:58.765Z,72.10
